LPMA Airport Information

Runway Information
Runway 05 Length 9110 ft width 148 ft
Elevation 147 ft Threshold 480 ft Heading 45
Runway 23 Length 9110 ft Width 148 ft
Elevation 192 ft Threshold 490 ft Heading 225
Airport Frequencies
Type APP Name APP Frequency 119.2 MHZ
Type TWR Name TWR Frequency 118.35 MHZ
Airport Navaids
Type VOR-DME Name Madeira Frequency 112200 KHZ
Type NDB Name Madeira Frequency 318 KHZ
Airport Weather Information & NOTAM
ADDS - METARS form results

(0619 UTC 03 December 2021)
Data provider http://aviationweather.gov/metar/data/
 
METAR text: LPMA 030600Z 01015G25KT 9999 BKN015 16/14 Q1026
Conditions at: LPMA (FUNCHAL/MADEIRA , PT) observed 0600 UTC 03 December 2021
Temperature: 16.0°C (61°F)
Dewpoint: 14.0°C (57°F) [RH = 88%]
Pressure (altimeter): 30.30 inches Hg (1026.0 mb)
Winds: from the N (10 degrees) at 17 MPH (15 knots; 7.7 m/s)
gusting to 29 MPH (25 knots; 12.9 m/s)
Visibility: 6 or more miles (10+ km)
Ceiling: 1500 feet AGL
Clouds: broken clouds at 1500 feet AGL
Weather: no significant weather observed at this time

METAR text: LPMA 030530Z 01014KT 9999 -SHRA BKN015 16/13 Q1026
Conditions at: LPMA (FUNCHAL/MADEIRA , PT) observed 0530 UTC 03 December 2021
Temperature: 16.0°C (61°F)
Dewpoint: 13.0°C (55°F) [RH = 82%]
Pressure (altimeter): 30.30 inches Hg (1026.0 mb)
Winds: from the N (10 degrees) at 16 MPH (14 knots; 7.2 m/s)
Visibility: 6 or more miles (10+ km)
Ceiling: 1500 feet AGL
Clouds: broken clouds at 1500 feet AGL
Weather: -SHRA  (light rain showers)

Forecast for: LPMA (FUNCHAL/MADEIRA , PT)
Text: TAF LPMA 030500Z 0306/0406 02015KT 9999 SCT015
Forecast period: 0600 UTC 03 December 2021 to 0600 UTC 04 December 2021
Forecast type: FROM: standard forecast or significant change
Winds: from the NNE (20 degrees) at 17 MPH (15 knots; 7.7 m/s)
Visibility: 6 or more miles (10+ km)
Ceiling: at least 12,000 feet AGL
Clouds: scattered clouds at 1500 feet AGL
Weather: no significant weather forecast for this period
Text: TEMPO 0306/0324 02018G30KT FEW015 BKN030
Forecast period: 0600 UTC 03 December 2021 to 0000 UTC 04 December 2021
Forecast type: TEMPORARY: The following changes expected for less than half the time period
Winds: from the NNE (20 degrees) at 21 MPH (18 knots; 9.3 m/s)
gusting to 34 MPH (30 knots; 15.4 m/s)
Visibility: missing
Ceiling: 3000 feet AGL
Clouds: few clouds at 1500 feet AGL
broken clouds at 3000 feet AGL
Weather: no significant weather forecast for this period
Text: PROB30
Forecast period: 0600 UTC 03 December 2021 to 0600 UTC 04 December 2021
Forecast type: TEMPORARY: The following changes expected for less than half the time period
Visibility: 5 miles (8 km)
Ceiling: 1300 feet AGL
Clouds: broken clouds at 1300 feet AGL
Weather: SHRA  (rain showers)